Time;durP1;ratioP1;P1;durP2;ratioP2;P2;SDS_P1;SDS_P2;PMS_P1;PMS_P2;Temp;Humidity;BMP_temperature;BMP_pressure;BME280_temperature;BME280_humidity;BME280_pressure;Samples;Min_cycle;Max_cycle;Signal;HPM_P1;HPM_P2
2023/03/19 00:01:13;;;;;;;10.38;4.60;;;;;;;20.88;29.29;100648.88;4964507;28;20058;-78
2023/03/19 00:03:41;;;;;;;7.78;4.50;;;;;;;20.82;28.81;100644.59;4958034;28;20145;-79
2023/03/19 00:06:10;;;;;;;8.68;4.15;;;;;;;20.74;29.59;100635.94;4970093;28;20070;-78
2023/03/19 00:08:40;;;;;;;7.28;3.78;;;;;;;20.68;30.12;100636.91;4963808;28;20138;-78
2023/03/19 00:11:11;;;;;;;8.25;4.00;;;;;;;20.51;29.89;100638.84;4961419;28;20042;-79
2023/03/19 00:13:40;;;;;;;8.05;4.43;;;;;;;20.37;30.06;100636.41;4963885;28;20054;-80
2023/03/19 00:16:11;;;;;;;9.82;4.20;;;;;;;20.29;30.34;100638.25;4962822;28;20412;-79
2023/03/19 00:18:40;;;;;;;11.18;4.25;;;;;;;20.24;30.12;100640.94;4960187;28;20511;-81
2023/03/19 00:21:10;;;;;;;8.88;4.05;;;;;;;20.18;30.86;100641.03;4961429;28;20676;-80
2023/03/19 00:23:39;;;;;;;10.75;4.55;;;;;;;20.16;30.57;100631.41;4962241;28;20058;-81
2023/03/19 00:26:11;;;;;;;8.60;4.03;;;;;;;20.08;31.02;100639.38;4967188;28;20106;-78
2023/03/19 00:28:39;;;;;;;8.75;3.92;;;;;;;20.01;31.50;100628.06;4964760;28;20507;-78
2023/03/19 00:31:12;;;;;;;9.05;4.38;;;;;;;19.96;31.57;100629.03;4964739;28;20054;-80
2023/03/19 00:33:41;;;;;;;8.38;4.30;;;;;;;19.87;31.94;100630.84;4964097;28;20078;-80
2023/03/19 00:36:12;;;;;;;11.82;4.53;;;;;;;19.81;31.83;100625.69;4964596;28;20054;-79
2023/03/19 00:38:41;;;;;;;8.88;4.93;;;;;;;19.74;31.74;100626.59;4964047;28;20046;-79
2023/03/19 00:41:09;;;;;;;6.80;4.07;;;;;;;19.73;32.27;100630.13;4960740;28;20051;-76
2023/03/19 00:43:38;;;;;;;7.85;4.18;;;;;;;19.70;32.28;100622.31;4963525;28;20171;-77
2023/03/19 00:46:07;;;;;;;9.02;4.45;;;;;;;19.67;32.82;100619.66;4963832;28;20043;-75
2023/03/19 00:48:38;;;;;;;9.30;4.70;;;;;;;19.64;33.61;100623.19;4957040;28;20126;-75
2023/03/19 00:51:08;;;;;;;6.53;4.10;;;;;;;19.54;34.66;100623.28;4967516;28;20492;-77
2023/03/19 00:53:39;;;;;;;9.55;4.60;;;;;;;19.42;33.60;100612.03;4964635;28;20066;-79
2023/03/19 00:56:09;;;;;;;9.05;3.75;;;;;;;19.37;35.76;100612.94;4969097;28;20050;-78
2023/03/19 00:58:39;;;;;;;8.25;3.58;;;;;;;19.31;35.31;100607.75;4967816;28;20090;-79
2023/03/19 01:01:13;;;;;;;9.52;4.47;;;;;;;19.21;33.01;100606.97;4966626;28;20070;-79
2023/03/19 01:03:44;;;;;;;9.25;4.10;;;;;;;19.15;33.53;100609.63;4965556;28;20054;-80
2023/03/19 01:06:14;;;;;;;7.13;3.80;;;;;;;19.10;35.35;100609.66;4965136;28;20105;-79
2023/03/19 01:08:43;;;;;;;10.38;4.20;;;;;;;19.04;35.20;100604.50;4966671;28;20460;-78
2023/03/19 01:11:15;;;;;;;11.40;4.40;;;;;;;18.98;34.17;100599.28;4964001;28;20047;-79
2023/03/19 01:13:43;;;;;;;;;;;;;;;18.96;33.43;100591.41;4959857;28;20053;-80
2023/03/19 01:16:12;;;;;;;7.85;4.32;;;;;;;18.93;35.74;100601.94;4966484;28;19951;-81
2023/03/19 01:18:41;;;;;;;8.77;4.13;;;;;;;18.88;34.64;100593.25;4963847;28;20055;-81
2023/03/19 01:21:11;;;;;;;9.82;4.60;;;;;;;18.83;34.23;100595.91;4970698;28;20047;-81
2023/03/19 01:23:40;;;;;;;7.28;4.18;;;;;;;18.82;33.89;100595.91;4967886;28;20467;-77
2023/03/19 01:26:09;;;;;;;9.38;3.90;;;;;;;18.79;34.02;100593.31;4969765;28;20057;-77
2023/03/19 01:28:37;;;;;;;10.02;4.07;;;;;;;18.74;33.60;100585.44;4968456;28;20689;-76
2023/03/19 01:31:09;;;;;;;6.82;3.47;;;;;;;18.67;33.73;100582.84;4957922;28;20051;-80
2023/03/19 01:33:38;;;;;;;8.82;4.05;;;;;;;18.60;34.31;100579.44;4960580;28;20047;-81
2023/03/19 01:36:07;;;;;;;7.38;3.80;;;;;;;18.57;34.05;100585.53;4955540;28;20086;-81
2023/03/19 01:38:37;;;;;;;8.57;3.53;;;;;;;18.51;34.52;100576.84;4951653;28;20500;-80
2023/03/19 01:41:07;;;;;;;10.65;3.20;;;;;;;18.40;34.65;100563.81;4966280;28;20058;-80
2023/03/19 01:43:35;;;;;;;7.10;3.80;;;;;;;18.38;35.74;100582.16;4969683;28;20138;-77
2023/03/19 01:46:08;;;;;;;6.38;3.88;;;;;;;18.25;36.39;100583.09;4962220;28;20050;-78
2023/03/19 01:48:41;;;;;;;10.48;3.47;;;;;;;18.16;35.93;100578.78;4964056;28;20047;-76
2023/03/19 01:51:12;;;;;;;9.95;3.58;;;;;;;18.12;36.10;100578.78;4969411;28;20078;-77
2023/03/19 01:53:46;;;;;;;5.90;3.35;;;;;;;18.10;36.67;100575.31;4958820;28;20715;-79
2023/03/19 01:56:20;;;;;;;5.13;3.00;;;;;;;18.05;36.76;100575.34;4960515;28;20456;-80
2023/03/19 01:58:53;;;;;;;7.68;3.45;;;;;;;17.97;37.94;100569.25;4966092;28;20051;-79
2023/03/19 02:01:22;;;;;;;6.93;3.58;;;;;;;17.91;38.33;100571.88;4966684;28;20411;-79
2023/03/19 02:03:52;;;;;;;8.63;4.63;;;;;;;17.85;38.40;100578.03;4967615;28;20066;-81
2023/03/19 02:06:23;;;;;;;13.00;4.30;;;;;;;17.79;38.90;100576.25;4962207;28;20051;-79
2023/03/19 02:08:54;;;;;;;6.88;3.60;;;;;;;17.73;38.63;100575.41;4963063;28;20051;-79
2023/03/19 02:11:33;;;;;;;14.65;4.20;;;;;;;17.65;38.83;100583.28;4965680;28;20062;-79
2023/03/19 02:14:02;;;;;;;10.15;4.20;;;;;;;17.50;40.94;100563.25;4963176;28;20523;-78
2023/03/19 02:16:30;;;;;;;7.75;3.55;;;;;;;17.48;40.42;100579.84;4964610;28;20319;-80
2023/03/19 02:19:13;;;;;;;10.45;4.55;;;;;;;17.39;40.57;100575.47;4965798;28;20105;-76
2023/03/19 02:21:44;;;;;;;14.85;5.03;;;;;;;17.30;40.42;100576.38;4966153;28;20252;-77
2023/03/19 02:24:21;;;;;;;10.32;4.07;;;;;;;17.21;41.27;100581.59;4968472;28;20526;-76
2023/03/19 02:26:52;;;;;;;9.48;4.72;;;;;;;17.13;41.59;100578.09;4962341;28;20295;-81
2023/03/19 02:29:24;;;;;;;15.70;5.68;;;;;;;17.04;41.92;100578.09;4964929;28;20039;-78
2023/03/19 02:31:53;;;;;;;14.07;5.30;;;;;;;16.94;42.02;100588.56;4969791;28;20101;-80
2023/03/19 02:34:39;;;;;;;10.30;5.07;;;;;;;16.85;43.13;100583.31;4966154;28;20050;-78
2023/03/19 02:37:17;;;;;;;14.38;4.57;;;;;;;16.76;42.52;100578.91;4965192;28;20197;-81
2023/03/19 02:39:53;;;;;;;11.55;4.72;;;;;;;16.68;43.53;100578.06;4966660;28;20204;-80
2023/03/19 02:42:24;;;;;;;18.75;9.45;;;;;;;16.59;43.33;100574.56;4971210;28;20516;-77
2023/03/19 02:44:53;;;;;;;12.75;7.45;;;;;;;16.53;43.45;100570.19;4968769;28;20543;-78
2023/03/19 02:47:22;;;;;;;11.98;5.82;;;;;;;16.44;43.73;100578.84;4970296;28;20053;-77
2023/03/19 02:49:51;;;;;;;9.85;4.95;;;;;;;16.35;44.20;100573.63;4966617;28;20130;-76
2023/03/19 02:52:20;;;;;;;11.68;5.40;;;;;;;16.26;44.48;100576.19;4966968;28;20059;-76
2023/03/19 02:54:48;;;;;;;16.02;5.55;;;;;;;16.17;44.19;100586.59;4967264;28;20784;-78
2023/03/19 02:57:17;;;;;;;18.63;7.38;;;;;;;16.08;45.14;100588.34;4963327;28;20136;-78
2023/03/19 02:59:48;;;;;;;17.48;7.35;;;;;;;15.99;45.32;100580.47;4967988;28;20047;-79
2023/03/19 03:02:17;;;;;;;22.15;8.13;;;;;;;15.91;45.21;100589.97;4968100;28;20053;-77
2023/03/19 03:04:46;;;;;;;28.85;10.82;;;;;;;15.80;45.20;100589.03;4961453;28;20074;-78
2023/03/19 03:07:15;;;;;;;16.13;6.28;;;;;;;15.73;46.37;100585.53;4966348;28;20173;-77
2023/03/19 03:09:43;;;;;;;16.52;5.88;;;;;;;15.64;46.01;100580.22;4964184;28;20051;-80
2023/03/19 03:12:12;;;;;;;19.85;7.82;;;;;;;15.56;46.02;100584.53;4960682;28;20114;-76
2023/03/19 03:14:42;;;;;;;45.10;17.35;;;;;;;15.48;46.53;100584.47;4966302;28;20058;-80
2023/03/19 03:17:12;;;;;;;40.70;14.75;;;;;;;15.42;46.75;100587.06;4962238;28;20049;-80
2023/03/19 03:19:41;;;;;;;45.88;19.40;;;;;;;15.36;47.35;100584.41;4963199;28;20050;-79
2023/03/19 03:22:10;;;;;;;35.92;16.33;;;;;;;15.29;47.20;100586.09;4958250;28;20051;-78
2023/03/19 03:24:39;;;;;;;42.30;16.13;;;;;;;15.24;47.80;100590.41;4962465;28;20054;-79
2023/03/19 03:27:08;;;;;;;32.50;14.52;;;;;;;15.20;48.29;100584.28;4963831;28;20394;-78
2023/03/19 03:29:37;;;;;;;38.80;17.73;;;;;;;15.16;47.98;100595.53;4956531;28;20061;-78
2023/03/19 03:32:06;;;;;;;40.35;17.65;;;;;;;15.14;47.96;100585.94;4956470;28;20138;-80
2023/03/19 03:34:37;;;;;;;42.20;19.95;;;;;;;15.08;47.76;100585.06;4964915;28;20102;-79
2023/03/19 03:37:06;;;;;;;43.75;18.70;;;;;;;15.06;47.73;100588.50;4971179;28;20529;-79
2023/03/19 03:39:35;;;;;;;51.28;20.35;;;;;;;15.04;48.03;100596.31;4961874;28;20532;-77
2023/03/19 03:42:03;;;;;;;44.63;16.95;;;;;;;15.01;47.58;100590.22;4965992;28;20054;-78
2023/03/19 03:44:32;;;;;;;42.67;17.63;;;;;;;14.98;48.66;100587.56;4966118;28;20055;-76
2023/03/19 03:47:03;;;;;;;36.47;15.35;;;;;;;14.95;48.22;100592.75;4966550;28;20563;-78
2023/03/19 03:49:32;;;;;;;41.85;18.85;;;;;;;14.92;48.85;100597.94;4967936;28;20105;-78
2023/03/19 03:52:02;;;;;;;33.33;15.05;;;;;;;14.90;48.34;100591.84;4965090;28;20047;-81
2023/03/19 03:54:31;;;;;;;37.90;16.45;;;;;;;14.87;50.67;100585.75;4963338;28;20047;-80
2023/03/19 03:57:00;;;;;;;31.77;16.13;;;;;;;14.83;50.99;100585.69;4958877;28;20050;-78
2023/03/19 03:59:28;;;;;;;26.77;12.98;;;;;;;14.78;49.11;100585.66;4966481;28;20078;-78
2023/03/19 04:01:57;;;;;;;25.35;11.68;;;;;;;14.75;48.72;100577.81;4960775;28;20059;-76
2023/03/19 04:04:27;;;;;;;30.60;12.68;;;;;;;14.72;48.57;100579.50;4960750;28;20059;-77
2023/03/19 04:06:55;;;;;;;25.58;11.45;;;;;;;14.68;49.71;100578.59;4965111;28;20050;-76
2023/03/19 04:09:26;;;;;;;22.55;10.40;;;;;;;14.65;49.41;100573.38;4964359;28;20047;-76
2023/03/19 04:11:54;;;;;;;23.05;10.65;;;;;;;14.61;50.09;100575.09;4966346;28;20518;-77
2023/03/19 04:14:22;;;;;;;32.15;13.15;;;;;;;14.59;50.87;100570.69;4964178;28;20049;-77
2023/03/19 04:16:51;;;;;;;31.60;11.80;;;;;;;14.52;50.42;100561.91;4958859;28;20585;-78
2023/03/19 04:19:20;;;;;;;22.95;7.03;;;;;;;14.48;49.22;100562.75;4961020;28;20161;-77
2023/03/19 04:21:49;;;;;;;21.25;8.43;;;;;;;14.41;49.08;100569.63;4959655;28;20094;-77
2023/03/19 04:24:18;;;;;;;28.58;12.90;;;;;;;14.34;51.64;100573.03;4958858;28;20046;-78
2023/03/19 04:26:48;;;;;;;22.15;8.38;;;;;;;14.23;51.53;100570.28;4963545;28;20055;-77
2023/03/19 04:29:17;;;;;;;19.02;9.25;;;;;;;14.19;50.93;100567.63;4961446;28;20043;-77
2023/03/19 04:31:46;;;;;;;19.48;8.55;;;;;;;14.14;50.97;100569.31;4962736;28;20057;-77
2023/03/19 04:34:15;;;;;;;15.13;7.57;;;;;;;14.09;50.59;100568.38;4964535;28;20101;-78
2023/03/19 04:36:44;;;;;;;19.90;9.20;;;;;;;14.06;50.39;100566.59;4964002;28;20047;-78
2023/03/19 04:39:13;;;;;;;44.20;18.20;;;;;;;14.01;50.24;100569.16;4961136;28;20066;-77
2023/03/19 04:41:42;;;;;;;42.13;16.52;;;;;;;13.97;48.99;100572.59;4959691;28;20061;-81
2023/03/19 04:44:12;;;;;;;24.88;9.50;;;;;;;13.95;47.95;100563.88;4960476;28;20579;-79
2023/03/19 04:46:40;;;;;;;20.90;8.05;;;;;;;13.93;48.86;100569.94;4963162;28;20050;-80
2023/03/19 04:49:09;;;;;;;20.13;9.30;;;;;;;13.91;49.86;100571.63;4963372;28;20366;-78
2023/03/19 04:51:38;;;;;;;25.30;10.73;;;;;;;13.88;49.36;100566.38;4964250;28;20586;-81
2023/03/19 04:54:06;;;;;;;30.50;11.85;;;;;;;13.84;49.37;100570.69;4960394;28;20063;-78
2023/03/19 04:56:35;;;;;;;33.50;13.52;;;;;;;13.79;49.31;100568.03;4961596;28;20043;-80
2023/03/19 04:59:04;;;;;;;41.75;16.30;;;;;;;13.75;49.95;100565.34;4963846;28;20078;-78
2023/03/19 05:01:35;;;;;;;42.53;15.40;;;;;;;13.70;49.50;100557.50;4966575;28;20050;-77
2023/03/19 05:04:04;;;;;;;37.08;15.88;;;;;;;13.68;49.49;100558.34;4967524;28;20051;-78
2023/03/19 05:06:32;;;;;;;35.97;14.70;;;;;;;13.62;49.88;100549.56;4963841;28;20137;-78
2023/03/19 05:09:01;;;;;;;38.88;14.70;;;;;;;13.60;49.82;100545.22;4967745;28;20051;-77
2023/03/19 05:11:30;;;;;;;37.17;16.08;;;;;;;13.57;50.51;100551.25;4966205;28;20061;-77
2023/03/19 05:13:59;;;;;;;36.72;13.05;;;;;;;13.55;50.50;100547.75;4966809;28;20055;-77
2023/03/19 05:16:27;;;;;;;33.03;13.02;;;;;;;13.53;51.49;100543.38;4967805;28;20051;-78
2023/03/19 05:18:58;;;;;;;29.75;11.68;;;;;;;13.51;50.99;100545.06;4963152;28;20087;-77
2023/03/19 05:21:27;;;;;;;27.58;11.05;;;;;;;13.47;50.95;100541.59;4962801;28;20106;-78
2023/03/19 05:23:56;;;;;;;26.80;9.55;;;;;;;13.46;51.14;100537.22;4968731;28;20074;-78
2023/03/19 05:26:24;;;;;;;19.15;8.95;;;;;;;13.44;51.58;100544.13;4966891;28;20046;-76
2023/03/19 05:28:53;;;;;;;21.05;8.23;;;;;;;13.43;51.86;100541.50;4971296;28;20046;-77
2023/03/19 05:31:21;;;;;;;11.77;5.70;;;;;;;13.41;52.89;100538.88;4968963;28;20105;-77
2023/03/19 05:33:50;;;;;;;12.73;5.53;;;;;;;13.38;52.52;100531.06;4965077;28;20053;-77
2023/03/19 05:36:21;;;;;;;14.90;6.22;;;;;;;13.36;52.99;100530.16;4966437;28;20061;-77
2023/03/19 05:38:50;;;;;;;9.63;5.70;;;;;;;13.33;52.75;100524.88;4966575;28;20054;-77
2023/03/19 05:41:19;;;;;;;17.35;5.95;;;;;;;13.30;53.16;100525.72;4971682;28;20058;-76
2023/03/19 05:43:47;;;;;;;13.02;5.97;;;;;;;13.20;52.96;100514.28;4965208;28;20048;-76
2023/03/19 05:46:16;;;;;;;20.38;7.28;;;;;;;13.20;53.40;100524.69;4964701;28;20062;-77
2023/03/19 05:48:45;;;;;;;16.05;7.03;;;;;;;13.14;54.34;100522.00;4969819;28;20054;-76
2023/03/19 05:51:13;;;;;;;22.00;8.02;;;;;;;13.10;53.81;100511.53;4967885;28;20074;-77
2023/03/19 05:53:44;;;;;;;19.13;7.95;;;;;;;13.06;54.75;100509.75;4961319;28;20055;-78
2023/03/19 05:56:13;;;;;;;16.63;7.63;;;;;;;13.02;54.57;100511.41;4966865;28;20237;-79
2023/03/19 05:58:42;;;;;;;16.58;8.15;;;;;;;12.98;54.99;100507.88;4968741;28;20042;-79
2023/03/19 06:01:10;;;;;;;15.90;7.53;;;;;;;12.94;55.09;100500.03;4967759;28;20047;-78
2023/03/19 06:03:39;;;;;;;19.15;8.80;;;;;;;12.91;55.07;100492.19;4965935;28;20114;-79
2023/03/19 06:06:08;;;;;;;19.45;8.05;;;;;;;12.90;54.67;100493.06;4964415;28;20129;-78
2023/03/19 06:08:37;;;;;;;15.25;7.68;;;;;;;12.90;54.30;100498.25;4965501;28;20057;-79
2023/03/19 06:11:07;;;;;;;13.13;7.82;;;;;;;12.89;53.83;100486.09;4967446;28;20503;-80
2023/03/19 06:13:36;;;;;;;15.43;7.95;;;;;;;12.89;53.35;100479.19;4965738;28;20047;-78
2023/03/19 06:16:05;;;;;;;17.00;7.65;;;;;;;12.92;52.87;100483.56;4967457;28;20047;-78
2023/03/19 06:18:34;;;;;;;14.68;6.93;;;;;;;12.92;52.41;100475.78;4965976;28;20147;-78
2023/03/19 06:21:02;;;;;;;12.70;6.68;;;;;;;12.91;52.96;100476.63;4970489;28;20080;-79
2023/03/19 06:23:31;;;;;;;13.10;6.68;;;;;;;12.90;53.21;100478.34;4970784;28;20624;-78
2023/03/19 06:26:00;;;;;;;11.85;6.20;;;;;;;12.88;53.62;100468.78;4969938;28;20283;-76
2023/03/19 06:28:30;;;;;;;13.38;5.93;;;;;;;12.90;52.42;100464.50;4965279;28;20047;-78
2023/03/19 06:31:01;;;;;;;16.23;5.88;;;;;;;12.92;51.36;100465.41;4967864;28;20054;-79
2023/03/19 06:33:31;;;;;;;9.68;4.40;;;;;;;12.93;49.83;100464.53;4966591;28;20118;-78
2023/03/19 06:35:59;;;;;;;7.70;3.85;;;;;;;12.95;49.20;100458.50;4967278;28;21064;-79
2023/03/19 06:38:28;;;;;;;8.43;3.50;;;;;;;12.97;49.07;100453.34;4968521;28;20051;-77
2023/03/19 06:40:57;;;;;;;11.15;4.35;;;;;;;12.96;48.79;100456.78;4962946;28;20066;-77
2023/03/19 06:43:26;;;;;;;15.20;4.45;;;;;;;12.98;48.90;100460.28;4966921;28;20055;-79
2023/03/19 06:45:56;;;;;;;9.02;4.88;;;;;;;12.96;48.85;100448.97;4964163;28;20054;-77
2023/03/19 06:48:25;;;;;;;8.75;3.83;;;;;;;12.98;48.27;100449.88;4962645;28;20085;-77
2023/03/19 06:50:53;;;;;;;7.07;4.05;;;;;;;12.96;48.90;100446.38;4967748;28;20457;-77
2023/03/19 06:53:22;;;;;;;7.65;2.88;;;;;;;12.91;48.17;100435.94;4964932;28;20043;-77
2023/03/19 06:55:51;;;;;;;7.43;3.33;;;;;;;12.97;47.38;100448.16;4966704;28;20129;-77
2023/03/19 06:58:19;;;;;;;5.03;3.30;;;;;;;12.98;47.28;100452.47;4966656;28;20057;-77
2023/03/19 07:00:48;;;;;;;9.20;4.45;;;;;;;12.94;50.90;100437.69;4961585;28;20512;-77
2023/03/19 07:03:18;;;;;;;6.05;2.95;;;;;;;12.99;48.20;100456.84;4965404;28;20062;-77
2023/03/19 07:05:48;;;;;;;6.55;3.15;;;;;;;12.97;47.60;100440.34;4960966;28;20556;-77
2023/03/19 07:08:17;;;;;;;7.47;3.08;;;;;;;12.98;48.72;100442.97;4961942;28;20098;-77
2023/03/19 07:10:46;;;;;;;9.02;2.92;;;;;;;12.96;49.00;100436.00;4967308;28;20065;-78
2023/03/19 07:13:14;;;;;;;9.40;4.10;;;;;;;12.95;50.16;100437.72;4964405;28;20070;-78
2023/03/19 07:15:43;;;;;;;4.82;2.70;;;;;;;12.94;48.61;100440.28;4960137;28;20740;-77
2023/03/19 07:18:12;;;;;;;9.18;2.92;;;;;;;12.92;48.09;100444.63;4968542;28;20047;-77
2023/03/19 07:20:42;;;;;;;8.55;2.85;;;;;;;12.89;47.73;100444.56;4964121;28;20465;-78
2023/03/19 07:23:11;;;;;;;7.25;2.95;;;;;;;12.89;48.36;100454.94;4967627;28;20046;-77
2023/03/19 07:25:39;;;;;;;5.40;3.42;;;;;;;12.86;49.07;100447.13;4967820;28;20289;-77
2023/03/19 07:28:08;;;;;;;7.18;2.67;;;;;;;12.83;48.49;100444.44;4961604;28;20058;-77
2023/03/19 07:30:37;;;;;;;5.18;2.65;;;;;;;12.84;50.64;100443.63;4969170;28;20504;-77
2023/03/19 07:33:06;;;;;;;9.52;3.33;;;;;;;12.78;51.18;100432.28;4962044;28;20065;-77
2023/03/19 07:35:35;;;;;;;5.07;3.00;;;;;;;12.74;51.34;100419.25;4963653;28;20055;-77
2023/03/19 07:38:05;;;;;;;7.30;3.17;;;;;;;12.69;51.41;100419.19;4960197;28;20878;-77
2023/03/19 07:40:35;;;;;;;5.25;2.97;;;;;;;12.69;50.73;100416.59;4963918;28;20054;-77
2023/03/19 07:43:04;;;;;;;5.28;2.22;;;;;;;12.67;50.90;100410.50;4961356;28;20058;-77
2023/03/19 07:45:33;;;;;;;6.50;2.80;;;;;;;12.68;48.48;100404.44;4963585;28;20051;-79
2023/03/19 07:48:02;;;;;;;5.45;2.15;;;;;;;12.70;47.47;100402.75;4962085;28;20500;-79
2023/03/19 07:50:31;;;;;;;6.03;2.15;;;;;;;12.71;47.25;100394.13;4966436;28;20061;-77
2023/03/19 07:52:59;;;;;;;5.60;2.33;;;;;;;12.75;46.54;100395.03;4967195;28;20455;-79
2023/03/19 07:55:30;;;;;;;6.28;1.90;;;;;;;12.70;46.73;100386.28;4962401;28;20047;-77
2023/03/19 07:57:58;;;;;;;3.78;2.03;;;;;;;12.78;46.18;100395.94;4966645;28;20065;-77
2023/03/19 08:00:27;;;;;;;5.25;1.85;;;;;;;12.81;45.86;100384.72;4966233;28;20054;-80
2023/03/19 08:02:56;;;;;;;2.97;1.70;;;;;;;12.82;45.52;100380.41;4963087;28;20054;-79
2023/03/19 08:05:24;;;;;;;4.07;1.90;;;;;;;12.86;44.93;100383.06;4963679;28;20051;-78
2023/03/19 08:07:53;;;;;;;6.00;1.88;;;;;;;12.90;48.88;100378.81;4966192;28;20062;-78
2023/03/19 08:10:22;;;;;;;7.68;2.25;;;;;;;12.88;45.35;100380.50;4963409;28;20121;-79
2023/03/19 08:12:52;;;;;;;3.40;1.58;;;;;;;12.87;45.01;100369.22;4964638;28;20130;-78
2023/03/19 08:15:21;;;;;;;2.97;1.42;;;;;;;12.87;44.24;100365.75;4968480;28;20101;-77
2023/03/19 08:17:50;;;;;;;4.07;1.92;;;;;;;12.88;44.52;100362.31;4963718;28;20046;-79
2023/03/19 08:20:20;;;;;;;4.15;2.03;;;;;;;12.90;44.28;100363.22;4962704;28;20046;-78
2023/03/19 08:22:51;;;;;;;8.00;2.55;;;;;;;12.91;44.72;100359.75;4963752;28;20047;-78
2023/03/19 08:25:20;;;;;;;3.07;1.80;;;;;;;12.93;44.10;100358.06;4960840;28;20050;-77
2023/03/19 08:27:49;;;;;;;6.30;1.75;;;;;;;12.92;43.91;100348.53;4965279;28;20150;-78
2023/03/19 08:30:19;;;;;;;2.67;1.55;;;;;;;12.93;43.69;100342.47;4963217;28;20476;-77
2023/03/19 08:32:48;;;;;;;2.85;1.52;;;;;;;12.94;44.09;100346.81;4962425;28;20057;-78
2023/03/19 08:35:17;;;;;;;4.25;1.73;;;;;;;12.93;44.84;100347.69;4965840;28;20050;-78
2023/03/19 08:37:46;;;;;;;2.90;1.35;;;;;;;12.91;44.30;100344.19;4964522;28;20693;-78
2023/03/19 08:40:15;;;;;;;6.05;1.52;;;;;;;12.91;43.85;100345.03;4963038;28;20083;-78
2023/03/19 08:42:44;;;;;;;4.18;1.58;;;;;;;12.90;45.28;100332.06;4963018;28;20885;-78
2023/03/19 08:45:14;;;;;;;2.40;1.60;;;;;;;12.91;44.55;100333.78;4964671;28;20073;-78
2023/03/19 08:47:45;;;;;;;3.88;1.42;;;;;;;12.89;43.96;100322.50;4963718;28;20087;-78
2023/03/19 08:50:14;;;;;;;2.97;1.40;;;;;;;12.88;43.32;100320.78;4967774;28;20452;-78
2023/03/19 08:52:43;;;;;;;2.65;1.17;;;;;;;12.92;43.82;100319.97;4963339;28;20062;-78
2023/03/19 08:55:12;;;;;;;4.70;1.55;;;;;;;12.81;44.76;100300.78;4963817;28;20054;-78
2023/03/19 08:57:40;;;;;;;2.58;1.40;;;;;;;12.89;44.63;100313.00;4962120;28;20046;-79
2023/03/19 09:00:10;;;;;;;8.65;1.90;;;;;;;12.86;44.15;100309.50;4962696;28;20555;-79
2023/03/19 09:02:39;;;;;;;5.22;1.30;;;;;;;12.85;43.63;100308.63;4961338;28;20548;-77
2023/03/19 09:05:10;;;;;;;1.98;1.35;;;;;;;12.83;43.70;100305.16;4966241;28;20051;-79
2023/03/19 09:07:38;;;;;;;4.15;1.50;;;;;;;12.83;42.89;100304.25;4960917;28;20709;-77
2023/03/19 09:10:08;;;;;;;3.38;1.70;;;;;;;12.83;43.07;100289.56;4971409;28;20089;-77
2023/03/19 09:12:37;;;;;;;4.15;1.65;;;;;;;12.85;42.74;100298.25;4967869;28;20571;-77
2023/03/19 09:15:07;;;;;;;2.28;1.40;;;;;;;12.79;42.07;100290.38;4962455;28;20043;-76
2023/03/19 09:17:35;;;;;;;2.67;1.77;;;;;;;12.88;43.43;100297.41;4965517;28;20047;-76
2023/03/19 09:20:05;;;;;;;5.35;1.55;;;;;;;12.86;42.35;100293.91;4962229;28;20495;-77
2023/03/19 09:22:36;;;;;;;3.33;1.83;;;;;;;12.84;43.13;100306.88;4963722;28;20137;-77
2023/03/19 09:25:04;;;;;;;4.78;2.08;;;;;;;12.84;42.43;100300.81;4956403;28;20103;-77
2023/03/19 09:27:33;;;;;;;5.15;1.80;;;;;;;12.85;42.60;100302.53;4960577;28;20065;-77
2023/03/19 09:30:02;;;;;;;2.72;1.48;;;;;;;12.85;42.03;100298.25;4962452;28;20579;-79
2023/03/19 09:32:31;;;;;;;4.38;2.15;;;;;;;12.85;43.71;100286.97;4966119;28;20058;-77
2023/03/19 09:34:59;;;;;;;2.30;1.50;;;;;;;12.79;43.50;100288.63;4963449;28;20093;-76
2023/03/19 09:37:28;;;;;;;2.70;1.40;;;;;;;12.76;43.62;100283.41;4963881;28;20097;-77
2023/03/19 09:39:58;;;;;;;3.53;1.42;;;;;;;12.72;43.82;100292.00;4966611;28;20055;-77
2023/03/19 09:42:41;;;;;;;4.90;1.65;;;;;;;12.69;43.63;100285.91;4965599;28;20559;-76
2023/03/19 09:45:15;;;;;;;4.13;1.30;;;;;;;12.66;42.87;100291.06;4968562;28;20049;-77
2023/03/19 09:47:46;;;;;;;4.30;1.40;;;;;;;12.64;42.31;100284.97;4968718;28;20047;-76
2023/03/19 09:50:17;;;;;;;3.58;1.67;;;;;;;12.64;43.52;100291.03;4965211;28;20531;-76
2023/03/19 09:52:47;;;;;;;3.03;1.40;;;;;;;12.64;43.18;100283.22;4964970;28;20101;-76
2023/03/19 09:55:33;;;;;;;2.70;1.48;;;;;;;12.64;42.72;100287.56;4968518;28;20079;-77
2023/03/19 09:58:02;;;;;;;1.98;1.30;;;;;;;12.64;43.87;100291.03;4957994;28;20055;-76
2023/03/19 10:00:36;;;;;;;2.20;1.30;;;;;;;12.60;42.69;100286.66;4960435;28;20051;-77
2023/03/19 10:03:15;;;;;;;3.72;1.25;;;;;;;12.62;43.03;100281.47;4966358;28;20054;-76
2023/03/19 10:05:50;;;;;;;3.00;1.63;;;;;;;12.61;45.44;100290.13;4964536;28;20369;-77
2023/03/19 10:08:39;;;;;;;6.03;1.50;;;;;;;12.56;42.44;100293.53;4971383;28;20047;-77
2023/03/19 10:11:23;;;;;;;2.80;1.25;;;;;;;12.55;44.25;100298.69;4968760;28;20101;-76
2023/03/19 10:14:08;;;;;;;4.38;1.52;;;;;;;12.52;44.64;100288.28;4965828;28;20043;-76
2023/03/19 10:16:47;;;;;;;3.35;1.55;;;;;;;12.49;47.90;100294.28;4963732;28;20050;-77
2023/03/19 10:19:22;;;;;;;2.72;1.33;;;;;;;12.44;44.32;100279.50;4963023;28;20171;-77
2023/03/19 10:21:55;;;;;;;2.97;1.33;;;;;;;12.42;46.24;100273.44;4964667;28;20046;-77
2023/03/19 10:24:30;;;;;;;5.28;1.52;;;;;;;12.39;45.97;100278.56;4966149;28;20054;-77
2023/03/19 10:27:05;;;;;;;4.95;1.38;;;;;;;12.38;45.90;100274.25;4963739;28;20050;-76
2023/03/19 10:29:36;;;;;;;3.97;1.60;;;;;;;12.35;44.18;100270.75;4967736;28;20058;-76
2023/03/19 10:32:15;;;;;;;2.42;1.50;;;;;;;12.35;46.53;100264.69;4963745;28;20050;-76
2023/03/19 10:34:44;;;;;;;3.53;1.27;;;;;;;12.32;45.24;100260.34;4966643;28;20047;-76
2023/03/19 10:37:25;;;;;;;6.25;1.58;;;;;;;12.34;45.60;100266.38;4963037;28;20747;-76
2023/03/19 10:39:57;;;;;;;2.55;1.38;;;;;;;12.33;44.88;100261.19;4965020;28;20061;-76
2023/03/19 10:42:47;;;;;;;4.00;1.50;;;;;;;12.33;43.39;100262.06;4963732;28;20697;-76
2023/03/19 10:45:25;;;;;;;3.63;1.75;;;;;;;12.32;43.89;100265.53;4961799;28;20659;-76
2023/03/19 10:47:55;;;;;;;2.35;1.20;;;;;;;12.32;44.35;100265.53;4962016;28;20055;-76
2023/03/19 10:50:29;;;;;;;6.47;1.83;;;;;;;12.31;43.17;100265.50;4966065;28;20085;-76
2023/03/19 10:53:05;;;;;;;3.92;2.03;;;;;;;12.29;44.81;100260.28;4961248;28;20062;-76
2023/03/19 10:55:35;;;;;;;4.97;1.75;;;;;;;12.27;44.29;100261.09;4964925;28;20078;-76
2023/03/19 10:58:17;;;;;;;3.95;1.40;;;;;;;12.25;47.20;100252.41;4966686;28;20077;-76
2023/03/19 11:00:48;;;;;;;4.57;1.63;;;;;;;12.28;45.59;100244.69;4961121;28;20051;-76
2023/03/19 11:03:31;;;;;;;10.82;1.45;;;;;;;12.27;46.20;100243.81;4970364;28;20043;-76
2023/03/19 11:06:17;;;;;;;3.97;1.10;;;;;;;12.24;45.63;100236.00;4964362;28;20051;-77
2023/03/19 11:08:54;;;;;;;5.22;1.50;;;;;;;12.22;44.61;100227.31;4962965;28;20082;-76
2023/03/19 11:11:33;;;;;;;2.75;1.23;;;;;;;12.19;46.37;100222.09;4964540;28;20051;-76
2023/03/19 11:14:10;;;;;;;4.07;1.60;;;;;;;12.18;46.79;100217.75;4962473;28;20142;-76
2023/03/19 11:16:57;;;;;;;3.30;1.77;;;;;;;12.13;47.86;100209.03;4962720;28;20054;-76
2023/03/19 11:19:28;;;;;;;4.95;1.67;;;;;;;12.10;48.07;100206.41;4962143;28;20062;-76
2023/03/19 11:22:13;;;;;;;6.03;2.10;;;;;;;12.07;47.74;100202.03;4967930;28;20142;-77
2023/03/19 11:24:44;;;;;;;3.67;1.77;;;;;;;12.06;47.43;100202.00;4963010;28;20488;-79
2023/03/19 11:27:14;;;;;;;4.85;1.58;;;;;;;12.02;47.08;100188.13;4963326;28;20197;-79
2023/03/19 11:29:45;;;;;;;3.30;1.48;;;;;;;12.03;47.39;100187.28;4961360;28;20162;-78
2023/03/19 11:32:36;;;;;;;3.53;1.45;;;;;;;12.01;47.32;100188.97;4967349;28;20102;-77
2023/03/19 11:35:08;;;;;;;2.45;1.50;;;;;;;11.99;47.70;100190.69;4961027;28;20117;-79
2023/03/19 11:37:51;;;;;;;2.88;1.50;;;;;;;11.97;47.75;100183.72;4963159;28;20054;-77